Time;durP1;ratioP1;P1;durP2;ratioP2;P2;SDS_P1;SDS_P2;PMS_P1;PMS_P2;Temp;Humidity;BMP_temperature;BMP_pressure;BME280_temperature;BME280_humidity;BME280_pressure;Samples;Min_cycle;Max_cycle;Signal;HPM_P1;HPM_P2
2021/07/10 00:00:35;;;;;;;12.32;8.23;;;;;;;16.64;78.10;100505.69;4975157;28;20097;-73
2021/07/10 00:03:02;;;;;;;9.65;7.82;;;;;;;16.64;78.08;100497.59;4976678;28;20058;-72
2021/07/10 00:05:29;;;;;;;14.30;7.68;;;;;;;16.54;78.16;100486.69;4958939;28;20109;-73
2021/07/10 00:07:56;;;;;;;10.07;8.13;;;;;;;16.58;78.72;100491.81;4976297;28;20051;-72
2021/07/10 00:10:23;;;;;;;12.90;8.27;;;;;;;16.58;78.67;100487.31;4975164;28;20360;-73
2021/07/10 00:12:49;;;;;;;14.73;8.02;;;;;;;16.60;78.43;100488.03;4975437;28;20055;-73
2021/07/10 00:15:19;;;;;;;12.02;8.02;;;;;;;16.66;78.04;100482.16;4976170;28;20114;-72
2021/07/10 00:17:47;;;;;;;13.38;9.10;;;;;;;16.67;78.01;100483.00;4978183;28;20057;-74
2021/07/10 00:20:14;;;;;;;10.82;7.93;;;;;;;16.69;78.12;100487.28;4984209;28;20039;-73
2021/07/10 00:22:41;;;;;;;12.95;8.15;;;;;;;16.63;78.47;100478.84;4997254;28;20062;-72
2021/07/10 00:25:10;;;;;;;12.00;7.85;;;;;;;16.60;79.29;100479.94;4995706;28;20050;-73
2021/07/10 00:27:38;;;;;;;10.25;7.38;;;;;;;16.57;79.29;100480.22;4995431;28;20069;-73
2021/07/10 00:30:07;;;;;;;11.90;7.32;;;;;;;16.46;79.90;100488.31;4995538;28;20158;-74
2021/07/10 00:32:33;;;;;;;11.85;8.20;;;;;;;16.47;79.16;100484.63;4995706;28;20458;-72
2021/07/10 00:35:00;;;;;;;10.00;7.53;;;;;;;16.43;79.50;100481.31;4995490;28;20092;-72
2021/07/10 00:37:27;;;;;;;13.05;8.20;;;;;;;16.44;79.58;100472.25;4994609;28;20446;-72
2021/07/10 00:39:53;;;;;;;10.15;8.00;;;;;;;16.41;79.76;100476.03;4994540;28;20100;-72
2021/07/10 00:42:21;;;;;;;10.05;7.70;;;;;;;16.40;79.69;100465.41;4995255;28;20432;-71
2021/07/10 00:44:49;;;;;;;10.23;7.72;;;;;;;16.26;80.24;100450.34;4995344;28;20101;-72
2021/07/10 00:47:17;;;;;;;9.38;7.72;;;;;;;16.29;80.78;100461.75;4995672;28;20050;-73
2021/07/10 00:49:44;;;;;;;11.00;7.65;;;;;;;16.15;80.62;100443.16;4995604;28;20050;-73
2021/07/10 00:52:10;;;;;;;14.43;8.20;;;;;;;16.31;79.96;100458.94;4994231;28;20764;-73
2021/07/10 00:54:37;;;;;;;12.35;8.25;;;;;;;16.36;79.66;100463.94;4995536;28;20046;-73
2021/07/10 00:57:07;;;;;;;12.70;8.35;;;;;;;16.34;79.42;100461.38;4994060;28;20054;-72
2021/07/10 00:59:35;;;;;;;11.60;7.93;;;;;;;16.34;79.47;100453.28;4995163;28;20051;-72
2021/07/10 01:02:01;;;;;;;12.88;8.52;;;;;;;16.33;79.87;100443.50;4995120;28;20456;-72
2021/07/10 01:04:28;;;;;;;12.07;8.57;;;;;;;16.25;80.12;100441.41;4995179;28;20444;-72
2021/07/10 01:06:55;;;;;;;11.98;8.48;;;;;;;16.17;80.38;100445.72;4995307;28;20108;-72
2021/07/10 01:09:21;;;;;;;12.30;8.57;;;;;;;16.10;80.84;100448.91;4995265;28;20050;-73
2021/07/10 01:11:50;;;;;;;11.70;8.35;;;;;;;16.12;81.01;100451.47;4995522;28;20117;-72
2021/07/10 01:14:16;;;;;;;14.75;8.35;;;;;;;16.14;80.72;100442.28;4994320;28;20092;-72
2021/07/10 01:16:43;;;;;;;8.85;7.63;;;;;;;16.10;81.18;100445.34;4996058;28;20050;-72
2021/07/10 01:19:10;;;;;;;11.57;7.65;;;;;;;16.05;81.38;100440.34;4997797;28;20157;-72
2021/07/10 01:21:38;;;;;;;17.85;8.73;;;;;;;16.06;81.21;100438.50;4981590;28;20047;-72
2021/07/10 01:24:04;;;;;;;12.85;8.10;;;;;;;15.99;81.03;100428.22;4979329;28;20184;-72
2021/07/10 01:26:31;;;;;;;11.40;8.48;;;;;;;16.12;80.24;100441.56;4978977;28;20173;-72
2021/07/10 01:28:58;;;;;;;14.55;8.80;;;;;;;16.08;80.43;100434.69;4978963;28;20062;-73
2021/07/10 01:31:24;;;;;;;14.30;9.15;;;;;;;16.04;80.66;100427.84;4978923;28;20105;-73
2021/07/10 01:33:52;;;;;;;12.00;8.38;;;;;;;16.09;81.12;100427.47;4977985;28;20139;-72
2021/07/10 01:36:20;;;;;;;12.98;8.60;;;;;;;16.06;80.33;100416.97;4979114;28;20125;-72
2021/07/10 01:38:46;;;;;;;13.18;8.43;;;;;;;16.09;80.64;100414.88;4978667;28;20117;-72
2021/07/10 01:41:13;;;;;;;11.98;9.15;;;;;;;16.08;80.62;100407.75;4978563;28;20046;-73
2021/07/10 01:43:40;;;;;;;17.23;9.73;;;;;;;16.11;80.42;100414.75;4978604;28;20425;-71
2021/07/10 01:46:08;;;;;;;11.60;8.75;;;;;;;16.06;80.52;100419.66;4978661;28;20351;-71
2021/07/10 01:48:35;;;;;;;12.50;9.40;;;;;;;16.00;80.90;100418.28;4978917;28;20047;-73
2021/07/10 01:51:01;;;;;;;10.93;8.80;;;;;;;16.01;80.97;100407.41;4978468;28;20043;-73
2021/07/10 01:53:28;;;;;;;13.02;9.63;;;;;;;15.88;81.07;100399.44;4978781;28;20086;-74
2021/07/10 01:55:55;;;;;;;12.45;9.43;;;;;;;15.98;81.04;100409.50;4978544;28;20338;-72
2021/07/10 01:58:21;;;;;;;12.20;8.75;;;;;;;15.94;81.47;100403.50;4978837;28;20092;-72
2021/07/10 02:00:48;;;;;;;12.35;8.27;;;;;;;15.95;81.48;100399.00;4978603;28;20043;-73
2021/07/10 02:03:15;;;;;;;13.93;8.50;;;;;;;15.93;81.74;100399.09;4977648;28;20059;-73
2021/07/10 02:05:42;;;;;;;13.77;8.95;;;;;;;15.86;82.02;100390.63;4978370;28;20055;-71
2021/07/10 02:08:09;;;;;;;12.85;8.77;;;;;;;15.94;82.36;100394.56;4978186;28;20113;-74
2021/07/10 02:10:36;;;;;;;14.45;9.40;;;;;;;15.93;81.58;100379.38;4978591;28;20392;-73
2021/07/10 02:13:08;;;;;;;11.48;9.05;;;;;;;15.97;81.58;100380.88;4977092;28;20062;-74
2021/07/10 02:15:35;;;;;;;11.77;8.30;;;;;;;15.96;81.81;100379.16;4978651;28;20117;-71
2021/07/10 02:18:03;;;;;;;11.80;8.82;;;;;;;16.00;81.70;100383.31;4978214;28;20078;-73
2021/07/10 02:20:29;;;;;;;12.57;8.77;;;;;;;16.01;81.15;100382.31;4985650;28;20054;-72
2021/07/10 02:22:58;;;;;;;12.20;8.75;;;;;;;16.09;81.27;100390.66;4996719;28;20103;-74
2021/07/10 02:25:26;;;;;;;14.18;8.63;;;;;;;16.12;80.80;100379.63;4997879;28;20054;-71
2021/07/10 02:27:52;;;;;;;13.30;9.57;;;;;;;16.12;80.86;100385.00;4997341;28;20132;-73
2021/07/10 02:30:24;;;;;;;13.65;9.63;;;;;;;16.18;80.53;100374.72;4997375;28;20380;-72
2021/07/10 02:32:51;;;;;;;14.13;8.98;;;;;;;16.19;80.79;100381.81;4997352;28;20058;-71
2021/07/10 02:35:18;;;;;;;13.85;9.18;;;;;;;16.14;81.06;100371.44;4997262;28;20054;-74
2021/07/10 02:37:47;;;;;;;15.55;8.85;;;;;;;16.15;80.65;100370.44;4996515;28;20062;-73
2021/07/10 02:40:17;;;;;;;13.45;9.13;;;;;;;16.22;80.76;100374.34;4997057;28;20046;-74
2021/07/10 02:42:45;;;;;;;;;;;;;;;16.23;80.72;100370.66;4997749;28;20062;-72
2021/07/10 02:45:13;;;;;;;14.00;8.52;;;;;;;16.27;80.26;100368.56;4996475;28;19929;-74
2021/07/10 02:47:41;;;;;;;17.30;8.55;;;;;;;16.21;80.60;100361.88;4999633;28;20054;-73
2021/07/10 02:50:11;;;;;;;13.50;8.80;;;;;;;16.31;80.07;100361.09;5000660;28;20093;-73
2021/07/10 02:52:38;;;;;;;15.45;8.93;;;;;;;16.31;79.88;100355.72;5001199;28;20506;-74
2021/07/10 02:55:06;;;;;;;13.13;8.13;;;;;;;16.33;80.30;100346.53;4999847;28;20130;-73
2021/07/10 02:57:32;;;;;;;12.63;8.45;;;;;;;16.26;80.15;100350.72;4997226;28;20514;-73
2021/07/10 03:00:00;;;;;;;14.23;8.50;;;;;;;16.31;80.39;100350.31;4995522;28;20360;-74
2021/07/10 03:02:26;;;;;;;11.48;8.57;;;;;;;16.35;80.30;100343.72;4996716;28;20620;-73
2021/07/10 03:04:54;;;;;;;14.05;8.38;;;;;;;16.34;80.09;100347.41;4996910;28;20054;-72
2021/07/10 03:07:20;;;;;;;14.50;7.78;;;;;;;16.37;80.04;100344.44;4995766;28;20440;-73
2021/07/10 03:09:47;;;;;;;11.00;7.68;;;;;;;16.27;80.33;100344.34;4996865;28;20321;-74
2021/07/10 03:12:13;;;;;;;13.30;7.95;;;;;;;16.31;80.07;100335.03;4996576;28;20400;-72
2021/07/10 03:14:40;;;;;;;13.82;8.00;;;;;;;16.31;80.26;100340.41;4996492;28;20134;-74
2021/07/10 03:17:06;;;;;;;9.98;8.32;;;;;;;16.31;79.99;100335.03;4996710;28;20046;-73
2021/07/10 03:19:33;;;;;;;12.00;8.40;;;;;;;16.25;81.03;100341.75;4996098;28;20057;-72
2021/07/10 03:22:00;;;;;;;24.52;8.13;;;;;;;16.21;81.42;100350.22;4960170;28;20101;-72
2021/07/10 03:24:26;;;;;;;12.30;8.73;;;;;;;16.14;81.91;100344.50;4977284;28;20069;-74
2021/07/10 03:26:53;;;;;;;13.10;8.40;;;;;;;16.21;81.28;100336.75;4976757;28;20055;-73
2021/07/10 03:29:20;;;;;;;11.23;8.23;;;;;;;16.13;81.50;100332.03;4976813;28;20404;-73
2021/07/10 03:31:47;;;;;;;11.10;7.75;;;;;;;16.12;81.58;100328.47;4976815;28;20051;-74
2021/07/10 03:34:13;;;;;;;17.75;7.75;;;;;;;16.19;81.52;100336.03;4960012;28;20059;-73
2021/07/10 03:36:40;;;;;;;12.07;8.45;;;;;;;16.27;81.00;100328.19;4976650;28;20428;-74
2021/07/10 03:39:06;;;;;;;10.10;8.13;;;;;;;16.25;80.61;100325.59;4976256;28;20050;-75
2021/07/10 03:41:33;;;;;;;11.50;7.88;;;;;;;16.28;80.13;100327.19;4976691;28;20157;-72
2021/07/10 03:44:00;;;;;;;11.88;8.77;;;;;;;16.19;80.57;100320.75;4975500;28;20050;-73
2021/07/10 03:46:26;;;;;;;11.48;8.13;;;;;;;16.22;80.73;100327.69;4975982;28;20062;-72
2021/07/10 03:48:53;;;;;;;9.95;7.68;;;;;;;16.17;81.26;100321.84;4976431;28;20050;-71
2021/07/10 03:51:20;;;;;;;13.20;9.55;;;;;;;16.18;80.85;100326.25;4976677;28;20047;-71
2021/07/10 03:53:47;;;;;;;10.48;8.13;;;;;;;16.19;80.96;100322.56;4976581;28;20401;-72
2021/07/10 03:56:14;;;;;;;12.60;8.40;;;;;;;16.14;81.41;100323.78;4975387;28;20051;-72
2021/07/10 03:58:41;;;;;;;11.93;8.15;;;;;;;16.20;81.30;100321.59;4976354;28;20055;-72
2021/07/10 04:01:07;;;;;;;11.00;8.07;;;;;;;16.21;81.20;100320.59;4976291;28;20429;-74
2021/07/10 04:03:34;;;;;;;13.90;8.05;;;;;;;16.13;81.54;100322.09;4975364;28;20105;-72
2021/07/10 04:06:01;;;;;;;10.95;8.13;;;;;;;16.09;82.04;100315.25;4976483;28;20050;-73
2021/07/10 04:08:27;;;;;;;10.77;8.35;;;;;;;16.12;81.67;100312.31;4976359;28;20343;-74
2021/07/10 04:10:54;;;;;;;12.05;8.27;;;;;;;16.15;81.41;100308.50;4975443;28;20043;-73
2021/07/10 04:13:20;;;;;;;12.27;8.35;;;;;;;16.07;82.17;100303.75;4976219;28;20054;-73
2021/07/10 04:15:47;;;;;;;14.00;8.45;;;;;;;16.17;81.61;100313.78;4976504;28;20060;-72
2021/07/10 04:18:14;;;;;;;15.63;8.75;;;;;;;16.08;81.96;100297.38;4976284;28;20121;-74
2021/07/10 04:20:41;;;;;;;10.43;7.75;;;;;;;16.08;82.60;100301.91;4985499;28;20042;-72
2021/07/10 04:23:07;;;;;;;12.65;7.82;;;;;;;16.09;82.94;100312.56;4995887;28;20109;-73
2021/07/10 04:25:34;;;;;;;14.48;7.82;;;;;;;16.12;82.60;100317.69;4995516;28;20108;-72
2021/07/10 04:28:01;;;;;;;11.52;8.02;;;;;;;16.07;83.01;100311.81;4994553;28;20062;-72
2021/07/10 04:30:27;;;;;;;11.35;7.72;;;;;;;16.07;83.02;100311.81;4994624;28;20062;-73
2021/07/10 04:32:54;;;;;;;11.75;8.45;;;;;;;16.10;82.79;100306.19;4995935;28;20105;-73
2021/07/10 04:35:21;;;;;;;13.60;8.70;;;;;;;16.04;83.09;100305.84;4994270;28;20050;-73
2021/07/10 04:37:48;;;;;;;10.90;8.35;;;;;;;16.08;83.26;100305.44;4995471;28;20050;-73
2021/07/10 04:40:15;;;;;;;13.45;8.60;;;;;;;16.05;83.91;100308.41;4995264;28;20129;-75
2021/07/10 04:42:43;;;;;;;12.05;8.63;;;;;;;16.06;84.36;100310.13;4995631;28;20129;-74
2021/07/10 04:45:10;;;;;;;13.27;8.68;;;;;;;16.02;84.12;100305.97;4995804;28;20050;-72
2021/07/10 04:47:37;;;;;;;14.75;8.00;;;;;;;16.13;83.80;100307.78;4995734;28;20117;-74
2021/07/10 04:50:06;;;;;;;11.85;8.55;;;;;;;16.09;84.20;100293.72;4994236;28;20054;-74
2021/07/10 04:52:33;;;;;;;11.70;8.48;;;;;;;16.27;83.16;100310.19;4997881;28;20404;-73
2021/07/10 04:54:59;;;;;;;12.82;8.40;;;;;;;16.32;82.98;100307.13;4998024;28;20054;-74
2021/07/10 04:57:26;;;;;;;11.55;8.52;;;;;;;16.36;82.93;100307.72;4999065;28;20089;-74
2021/07/10 04:59:53;;;;;;;14.85;9.15;;;;;;;16.38;83.01;100313.81;4999154;28;20117;-74
2021/07/10 05:02:21;;;;;;;12.70;8.63;;;;;;;16.46;82.81;100311.38;4997837;28;20046;-72
2021/07/10 05:04:48;;;;;;;13.20;7.43;;;;;;;16.52;82.95;100307.28;4999059;28;20101;-74
2021/07/10 05:07:15;;;;;;;8.65;7.70;;;;;;;16.55;82.76;100315.09;4997918;28;20376;-73
2021/07/10 05:09:41;;;;;;;16.02;8.38;;;;;;;16.53;83.27;100311.69;4996254;28;20058;-73
2021/07/10 05:12:08;;;;;;;10.13;7.95;;;;;;;16.55;83.07;100309.72;4987145;28;20043;-73
2021/07/10 05:14:36;;;;;;;11.48;8.25;;;;;;;16.65;83.64;100315.19;4979377;28;20464;-73
2021/07/10 05:17:03;;;;;;;10.70;8.40;;;;;;;16.69;83.37;100320.19;4985069;28;20400;-72
2021/07/10 05:19:30;;;;;;;14.43;8.73;;;;;;;16.72;83.21;100315.53;4999793;28;20429;-72
2021/07/10 05:21:57;;;;;;;10.65;8.27;;;;;;;16.79;82.83;100320.25;4983339;28;20082;-72
2021/07/10 05:24:23;;;;;;;14.35;7.82;;;;;;;16.91;82.32;100312.13;4988971;28;20053;-72
2021/07/10 05:26:50;;;;;;;14.43;7.78;;;;;;;16.93;82.83;100311.00;4989096;28;20066;-72
2021/07/10 05:29:16;;;;;;;9.25;7.20;;;;;;;16.87;82.70;100298.03;4997978;28;20078;-74
2021/07/10 05:31:43;;;;;;;11.43;7.55;;;;;;;17.06;81.76;100318.06;4998503;28;20054;-74
2021/07/10 05:34:10;;;;;;;10.57;8.30;;;;;;;16.92;81.61;100295.81;4998679;28;20081;-75
2021/07/10 05:36:36;;;;;;;12.55;8.45;;;;;;;17.08;81.69;100316.97;4996592;28;20050;-74
2021/07/10 05:39:04;;;;;;;13.98;8.57;;;;;;;17.06;82.01;100308.13;4998140;28;20058;-73
2021/07/10 05:41:31;;;;;;;9.32;7.60;;;;;;;17.14;82.05;100320.09;4997854;28;20061;-74
2021/07/10 05:43:58;;;;;;;11.95;8.48;;;;;;;16.99;82.83;100303.38;4997914;28;20050;-74
2021/07/10 05:46:25;;;;;;;16.25;8.13;;;;;;;17.00;83.40;100311.31;4995068;28;20050;-78
2021/07/10 05:48:52;;;;;;;13.95;8.55;;;;;;;17.09;82.64;100320.50;4986548;28;20474;-70
2021/07/10 05:51:18;;;;;;;9.63;8.07;;;;;;;17.02;83.09;100314.78;4990756;28;20058;-73
2021/07/10 05:53:46;;;;;;;10.73;7.53;;;;;;;17.04;83.81;100314.63;4989780;28;20059;-72
2021/07/10 05:56:14;;;;;;;12.27;8.07;;;;;;;17.05;83.63;100310.97;4987584;28;20455;-75
2021/07/10 05:58:40;;;;;;;12.98;8.40;;;;;;;17.15;82.98;100314.56;4987156;28;20046;-72
2021/07/10 06:01:07;;;;;;;11.07;8.38;;;;;;;17.20;83.16;100309.63;4986555;28;20098;-72
2021/07/10 06:03:34;;;;;;;11.05;7.88;;;;;;;17.27;83.15;100311.81;4985963;28;20491;-69
2021/07/10 06:06:02;;;;;;;9.27;8.27;;;;;;;17.32;83.05;100312.25;4986748;28;20046;-75
2021/07/10 06:08:29;;;;;;;11.68;8.20;;;;;;;17.33;82.33;100303.19;4988778;28;20128;-75
2021/07/10 06:10:55;;;;;;;10.43;8.32;;;;;;;17.42;81.79;100299.66;4989768;28;20051;-80
2021/07/10 06:13:22;;;;;;;12.40;9.10;;;;;;;17.45;81.06;100304.81;4986817;28;20055;-74
2021/07/10 06:15:49;;;;;;;10.65;8.02;;;;;;;17.43;80.83;100290.56;4987797;28;20105;-74
2021/07/10 06:18:15;;;;;;;9.30;7.53;;;;;;;17.55;80.71;100295.88;4988367;28;20057;-71
2021/07/10 06:20:43;;;;;;;11.93;8.13;;;;;;;17.64;80.79;100303.16;4971314;28;20042;-71
2021/07/10 06:23:10;;;;;;;11.73;8.60;;;;;;;17.57;80.29;100283.09;4987194;28;20050;-76
2021/07/10 06:25:38;;;;;;;10.38;7.90;;;;;;;17.72;79.67;100288.97;4984807;28;20055;-72
2021/07/10 06:28:06;;;;;;;11.02;8.20;;;;;;;17.77;80.07;100289.44;4987556;28;20082;-71
2021/07/10 06:30:34;;;;;;;12.30;8.10;;;;;;;17.82;81.01;100291.72;4987929;28;20047;-72
2021/07/10 06:33:00;;;;;;;12.68;8.52;;;;;;;17.87;80.34;100286.75;4988381;28;20051;-72
2021/07/10 06:35:27;;;;;;;10.25;8.43;;;;;;;18.21;77.91;100285.56;4987185;28;20385;-71
2021/07/10 06:37:54;;;;;;;11.20;8.25;;;;;;;18.23;77.94;100283.56;4988163;28;20050;-72
2021/07/10 06:40:21;;;;;;;13.05;8.50;;;;;;;18.30;77.35;100285.56;4984511;28;20047;-73
2021/07/10 06:42:49;;;;;;;15.23;8.50;;;;;;;18.30;76.50;100282.88;4986387;28;20077;-70
2021/07/10 06:45:19;;;;;;;12.85;8.77;;;;;;;18.49;76.49;100291.13;4987559;28;20484;-70
2021/07/10 06:47:47;;;;;;;11.53;7.57;;;;;;;18.48;76.22;100287.56;4989165;28;20441;-71
2021/07/10 06:50:17;;;;;;;12.88;7.93;;;;;;;18.52;76.53;100288.97;4988671;28;20050;-70
2021/07/10 06:52:46;;;;;;;13.25;7.38;;;;;;;18.62;75.82;100298.94;4990528;28;20049;-73
2021/07/10 06:55:14;;;;;;;13.13;7.57;;;;;;;18.67;75.55;100302.06;4987551;28;20380;-73
2021/07/10 06:57:46;;;;;;;12.93;7.68;;;;;;;18.72;76.72;100302.50;4980812;28;20380;-83
2021/07/10 07:00:16;;;;;;;14.50;7.72;;;;;;;18.71;77.54;100298.09;4962519;28;20070;-74
2021/07/10 07:02:43;;;;;;;10.63;6.50;;;;;;;18.75;77.76;100302.22;4985054;28;20101;-73
2021/07/10 07:05:11;;;;;;;9.82;6.80;;;;;;;18.75;76.42;100302.22;4970443;28;20051;-72
2021/07/10 07:07:38;;;;;;;9.93;7.30;;;;;;;18.78;75.01;100304.63;4986513;28;20085;-73
2021/07/10 07:10:08;;;;;;;8.77;6.53;;;;;;;18.87;75.52;100298.34;4987425;28;20393;-74
2021/07/10 07:12:38;;;;;;;12.98;5.95;;;;;;;18.92;75.78;100294.34;4987566;28;20138;-75
2021/07/10 07:15:08;;;;;;;12.00;7.15;;;;;;;19.06;75.17;100296.63;4985373;28;20047;-76
2021/07/10 07:17:35;;;;;;;8.80;6.30;;;;;;;19.13;75.00;100297.75;4988073;28;20067;-74
2021/07/10 07:20:04;;;;;;;8.75;6.40;;;;;;;19.13;74.57;100281.53;4986642;28;20093;-74
2021/07/10 07:22:33;;;;;;;9.60;6.10;;;;;;;19.30;74.00;100292.59;4986387;28;20451;-74
2021/07/10 07:25:00;;;;;;;9.35;6.47;;;;;;;19.40;72.02;100293.41;4968719;28;20069;-75
2021/07/10 07:27:27;;;;;;;9.55;6.88;;;;;;;19.48;72.04;100292.66;4987301;28;20062;-76
2021/07/10 07:29:54;;;;;;;9.63;7.07;;;;;;;19.50;71.31;100297.94;4984145;28;20061;-76
2021/07/10 07:32:23;;;;;;;10.48;6.40;;;;;;;19.60;72.15;100289.78;4985693;28;20393;-78
2021/07/10 07:34:50;;;;;;;9.65;6.13;;;;;;;19.67;73.18;100288.16;4987276;28;20326;-76
2021/07/10 07:37:18;;;;;;;11.30;6.78;;;;;;;19.70;72.65;100292.41;4985396;28;20062;-75
2021/07/10 07:39:46;;;;;;;8.98;7.25;;;;;;;19.79;72.89;100289.66;4984945;28;20058;-75
2021/07/10 07:42:15;;;;;;;10.10;6.80;;;;;;;19.83;72.17;100298.31;4987823;28;20042;-76
2021/07/10 07:44:42;;;;;;;10.02;6.47;;;;;;;19.92;72.74;100292.00;4984381;28;20098;-73
2021/07/10 07:47:15;;;;;;;10.35;6.60;;;;;;;19.90;72.26;100288.63;4986322;28;20097;-73
2021/07/10 07:49:43;;;;;;;14.07;6.45;;;;;;;19.95;72.96;100294.44;4986961;28;20085;-73
2021/07/10 07:52:09;;;;;;;9.30;6.32;;;;;;;19.99;70.60;100277.91;4988603;28;20321;-73
2021/07/10 07:54:36;;;;;;;13.27;5.93;;;;;;;20.12;71.86;100286.50;4989310;28;20475;-76
2021/07/10 07:57:04;;;;;;;9.95;6.28;;;;;;;20.17;71.31;100280.63;4991429;28;20387;-76
2021/07/10 07:59:31;;;;;;;12.57;7.22;;;;;;;20.17;70.05;100294.16;4981432;28;20326;-77
2021/07/10 08:01:59;;;;;;;10.93;6.47;;;;;;;20.14;71.08;100283.63;4982284;28;20395;-73
2021/07/10 08:04:26;;;;;;;12.77;6.85;;;;;;;20.19;69.64;100276.75;4981417;28;20587;-76
2021/07/10 08:06:53;;;;;;;9.95;5.90;;;;;;;20.29;69.06;100286.66;4991547;28;20100;-71
2021/07/10 08:09:19;;;;;;;12.38;5.80;;;;;;;20.32;67.86;100280.94;4978205;28;20054;-73
2021/07/10 08:11:46;;;;;;;7.78;5.30;;;;;;;20.21;67.43;100280.16;4994738;28;20058;-72
2021/07/10 08:14:13;;;;;;;9.98;6.10;;;;;;;20.24;67.96;100273.56;4993267;28;20081;-72
2021/07/10 08:16:39;;;;;;;8.55;6.35;;;;;;;20.45;65.99;100275.13;4993868;28;20050;-72
2021/07/10 08:19:06;;;;;;;10.63;5.30;;;;;;;20.47;66.99;100273.97;4977822;28;20112;-72
2021/07/10 08:21:33;;;;;;;10.70;6.00;;;;;;;20.46;66.57;100266.84;4979138;28;20101;-72
2021/07/10 08:24:01;;;;;;;7.43;5.25;;;;;;;20.57;64.77;100268.47;4976162;28;20117;-72
2021/07/10 08:26:28;;;;;;;11.73;6.28;;;;;;;20.55;66.14;100264.19;4978373;28;20061;-72
2021/07/10 08:28:55;;;;;;;10.00;5.57;;;;;;;20.42;66.56;100261.91;4979670;28;20059;-72
2021/07/10 08:31:25;;;;;;;7.93;5.10;;;;;;;20.52;66.26;100257.22;4979416;28;20618;-72
2021/07/10 08:33:52;;;;;;;6.63;5.35;;;;;;;20.54;66.89;100259.78;4979854;28;20393;-72
2021/07/10 08:36:18;;;;;;;9.15;5.32;;;;;;;20.61;65.99;100260.84;4979314;28;20054;-72
2021/07/10 08:38:46;;;;;;;10.88;5.47;;;;;;;20.48;64.84;100253.97;4979946;28;20109;-72
2021/07/10 08:41:13;;;;;;;7.93;5.65;;;;;;;20.60;65.86;100256.44;4979984;28;20149;-72
2021/07/10 08:43:40;;;;;;;9.52;5.53;;;;;;;20.65;64.37;100247.84;4978754;28;20495;-72
2021/07/10 08:46:12;;;;;;;8.18;4.97;;;;;;;20.59;66.54;100252.88;4979823;28;20389;-72
2021/07/10 08:48:40;;;;;;;6.68;5.40;;;;;;;20.72;66.46;100260.63;4979970;28;20154;-72
2021/07/10 08:51:08;;;;;;;6.90;4.97;;;;;;;20.81;66.42;100255.25;4978850;28;20101;-72
2021/07/10 08:53:35;;;;;;;10.35;4.93;;;;;;;20.96;63.30;100256.41;4978590;28;20105;-72
2021/07/10 08:56:02;;;;;;;10.15;5.03;;;;;;;20.92;64.89;100257.72;4979923;28;20059;-72
2021/07/10 08:58:28;;;;;;;7.50;4.88;;;;;;;20.97;63.18;100268.94;4979818;28;20047;-72
2021/07/10 09:00:55;;;;;;;8.60;4.50;;;;;;;20.99;61.48;100252.50;4979933;28;20117;-72
2021/07/10 09:03:22;;;;;;;5.57;4.50;;;;;;;21.02;62.66;100258.47;4962615;28;20090;-72
2021/07/10 09:05:49;;;;;;;8.02;4.85;;;;;;;21.10;63.57;100256.81;4978442;28;20105;-72
2021/07/10 09:08:27;;;;;;;11.35;4.95;;;;;;;21.17;64.00;100255.16;4978372;28;20054;-71
2021/07/10 09:11:06;;;;;;;6.93;4.55;;;;;;;21.36;63.05;100250.50;4979655;28;20065;-72
2021/07/10 09:13:37;;;;;;;7.90;4.72;;;;;;;21.50;60.87;100246.31;4979777;28;20047;-72
2021/07/10 09:16:05;;;;;;;8.13;4.93;;;;;;;21.40;59.57;100235.56;4979402;28;20055;-72
2021/07/10 09:18:42;;;;;;;8.50;5.03;;;;;;;21.47;60.82;100242.09;4979388;28;20134;-72
2021/07/10 09:21:11;;;;;;;7.63;4.75;;;;;;;21.43;60.35;100224.41;4992038;28;20515;-72
2021/07/10 09:23:41;;;;;;;6.25;4.50;;;;;;;21.53;60.04;100241.41;4998364;28;20436;-72
2021/07/10 09:26:23;;;;;;;10.07;4.70;;;;;;;21.52;59.58;100234.28;4998463;28;20050;-72
2021/07/10 09:28:57;;;;;;;6.57;4.70;;;;;;;21.61;59.11;100234.34;4998229;28;20116;-72
2021/07/10 09:31:28;;;;;;;7.57;4.90;;;;;;;21.66;59.30;100230.09;4998846;28;20128;-72
2021/07/10 09:33:57;;;;;;;8.98;4.50;;;;;;;21.56;59.21;100222.09;4998324;28;20062;-71
2021/07/10 09:36:23;;;;;;;8.43;4.70;;;;;;;21.70;61.01;100228.75;4997621;28;20054;-71
2021/07/10 09:38:53;;;;;;;11.13;5.60;;;;;;;21.70;62.00;100222.50;4997434;28;20054;-71
2021/07/10 09:41:26;;;;;;;8.30;4.45;;;;;;;21.65;60.78;100222.97;4997450;28;20054;-71
2021/07/10 09:43:56;;;;;;;6.45;4.38;;;;;;;21.75;58.59;100225.56;4997175;28;20436;-71
2021/07/10 09:46:27;;;;;;;11.05;4.13;;;;;;;21.75;59.44;100222.88;4998214;28;20105;-71
2021/07/10 09:48:55;;;;;;;8.13;4.30;;;;;;;21.75;58.81;100211.13;4998229;28;20348;-71
2021/07/10 09:51:26;;;;;;;9.27;4.43;;;;;;;21.65;57.80;100211.25;4997116;28;20432;-71
2021/07/10 09:53:56;;;;;;;11.38;4.68;;;;;;;21.49;59.33;100210.19;4998390;28;20100;-73
2021/07/10 09:56:23;;;;;;;5.63;3.97;;;;;;;21.47;60.10;100208.66;4997959;28;20054;-71
2021/07/10 09:58:50;;;;;;;7.97;4.30;;;;;;;21.47;58.43;100201.34;4996751;28;20101;-71
2021/07/10 10:01:33;;;;;;;9.40;4.28;;;;;;;21.65;59.26;100208.53;4997670;28;20436;-71
2021/07/10 10:04:18;;;;;;;6.70;3.83;;;;;;;21.69;58.04;100199.06;4998176;28;20074;-72
2021/07/10 10:06:45;;;;;;;8.70;3.78;;;;;;;21.97;56.13;100199.63;4997946;28;20093;-74
2021/07/10 10:09:17;;;;;;;5.40;3.70;;;;;;;21.94;55.67;100201.81;4986474;28;20050;-74
2021/07/10 10:12:03;;;;;;;5.22;3.15;;;;;;;21.94;55.85;100194.53;4987777;28;20046;-74
2021/07/10 10:14:33;;;;;;;7.38;4.00;;;;;;;22.03;57.08;100195.41;4992193;28;20054;-74
2021/07/10 10:17:00;;;;;;;5.63;3.70;;;;;;;22.13;57.16;100192.53;4994501;28;20047;-75
2021/07/10 10:19:30;;;;;;;6.22;3.38;;;;;;;22.00;55.91;100181.31;4992816;28;20050;-75
2021/07/10 10:22:01;;;;;;;6.57;3.50;;;;;;;21.78;56.25;100179.06;4987660;28;20097;-74
2021/07/10 10:24:30;;;;;;;5.50;3.47;;;;;;;21.90;55.83;100186.88;4991110;28;20395;-73
2021/07/10 10:26:58;;;;;;;6.72;3.58;;;;;;;22.07;55.55;100183.16;4983675;28;20113;-74
2021/07/10 10:29:27;;;;;;;8.85;3.42;;;;;;;22.32;55.96;100185.88;4988373;28;20093;-76
2021/07/10 10:31:56;;;;;;;6.75;3.50;;;;;;;22.39;57.59;100175.19;4988695;28;20096;-72
2021/07/10 10:34:23;;;;;;;6.03;3.67;;;;;;;22.61;57.25;100161.94;4987188;28;20077;-73
2021/07/10 10:36:51;;;;;;;7.18;3.53;;;;;;;22.74;54.94;100166.81;4985061;28;20494;-72
2021/07/10 10:39:21;;;;;;;5.70;3.72;;;;;;;22.83;53.21;100164.94;4986078;28;20368;-73
2021/07/10 10:42:03;;;;;;;4.63;3.25;;;;;;;22.99;53.41;100158.59;4985424;28;20492;-74
2021/07/10 10:44:39;;;;;;;6.68;3.45;;;;;;;23.05;52.58;100153.28;4987049;28;20062;-71
2021/07/10 10:47:11;;;;;;;4.45;3.03;;;;;;;23.19;53.33;100151.72;4987694;28;20051;-73
2021/07/10 10:49:53;;;;;;;5.70;2.97;;;;;;;23.40;51.88;100152.13;4985339;28;20093;-70
2021/07/10 10:52:41;;;;;;;6.25;3.40;;;;;;;23.60;51.95;100160.72;4986754;28;20109;-74
2021/07/10 10:55:12;;;;;;;6.60;2.80;;;;;;;23.78;49.07;100162.31;4985106;28;20051;-71
2021/07/10 10:57:41;;;;;;;;;;;;;;;24.12;48.53;100153.75;4986729;28;20075;-73
2021/07/10 11:00:18;;;;;;;4.30;2.72;;;;;;;24.37;48.72;100159.00;4988763;28;19926;-75
2021/07/10 11:02:55;;;;;;;4.63;2.85;;;;;;;24.62;46.92;100156.00;4989094;28;20046;-72
2021/07/10 11:05:30;;;;;;;7.70;2.80;;;;;;;24.69;47.70;100147.94;4986447;28;20050;-71
2021/07/10 11:08:19;;;;;;;4.75;2.65;;;;;;;24.56;47.48;100148.56;4988718;28;20050;-74
2021/07/10 11:11:08;;;;;;;4.20;2.70;;;;;;;24.72;50.00;100139.34;4990324;28;20050;-73
2021/07/10 11:13:38;;;;;;;4.38;2.78;;;;;;;24.84;47.28;100133.47;4986308;28;20105;-74
2021/07/10 11:16:10;;;;;;;5.72;3.05;;;;;;;24.81;46.81;100132.81;4985867;28;20407;-75
2021/07/10 11:18:59;;;;;;;4.03;3.00;;;;;;;24.83;47.78;100131.78;4986387;28;20046;-73
2021/07/10 11:21:38;;;;;;;4.70;2.83;;;;;;;24.65;49.14;100127.50;4985848;28;20060;-79
2021/07/10 11:26:55;;;;;;;5.15;3.08;;;;;;;24.68;47.46;100124.41;4976814;28;20061;-77